Seaspan Eagle — CFN6642 — position and weather

sailwx.info

Track history (hours):
 
Tides and Currents Weather Stations Pressure Air Temp Water Temp Dewpoint Dewpoint Depression Visibility Wind Speed Wind Dir Waves Ship Positions

Seaspan Eagle

Last reported at 2017-Dec-11 04:00 UTC. Time now 2017-Dec-11 04:12 UTC.
Position N 49°18' W 123°05'.

Length 26 m; draft 5.4 m.

Type: Tug. MMSI: 316020871.

Date/timePositionNaut miles runAvg speedWind from/ knotsBaromVisibWave heightAir tempDewpointWater temp
2017-Dec-11 04:00N 49°18' W 123°05'0 0.0
2017-Dec-11 03:30N 49°18' W 123°05'1 1.7
2017-Dec-11 03:00N 49°18' W 123°04'3 5.2
2017-Dec-11 02:30N 49°18' W 122°60'3 6.1
2017-Dec-11 02:00N 49°18' W 122°55'2 3.6
2017-Dec-11 01:30N 49°18' W 122°52'0 0.1
2017-Dec-11 01:00N 49°17' W 122°52'2 3.1
2017-Dec-11 00:30N 49°18' W 122°54'4 8.5
2017-Dec-11 00:00N 49°18' W 123°01'2 3.9
2017-Dec-10 23:30N 49°18' W 123°04'0 0.1
2017-Dec-10 23:00N 49°18' W 123°04'1 1.5
2017-Dec-10 22:30N 49°18' W 123°05'1 1.9
2017-Dec-10 22:00N 49°19' W 123°06'0 0.0
2017-Dec-10 21:30N 49°19' W 123°06'0 0.0
2017-Dec-10 21:01N 49°19' W 123°06'1 2.1
2017-Dec-10 20:31N 49°18' W 123°07'0 0.0
2017-Dec-10 20:00N 49°18' W 123°07'0 0.0
2017-Dec-10 19:30N 49°18' W 123°07'0 0.0
2017-Dec-10 19:00N 49°18' W 123°07'0 0.0
2017-Dec-10 18:30N 49°18' W 123°07'0 0.0
2017-Dec-10 18:00N 49°18' W 123°07'0 0.0
2017-Dec-10 17:30N 49°18' W 123°07'0 0.0
2017-Dec-10 17:00N 49°18' W 123°07'0 0.0
2017-Dec-10 16:30N 49°18' W 123°07'0 0.0
2017-Dec-10 16:00N 49°18' W 123°07'0 0.0
2017-Dec-10 15:30N 49°18' W 123°07'3 5.3
2017-Dec-10 15:00N 49°19' W 123°11'510.8
2017-Dec-10 14:30N 49°16' W 123°18'611.2
2017-Dec-10 14:00N 49°11' W 123°19'511.0
2017-Dec-10 13:30N 49°05' W 123°20'511.0
2017-Dec-10 13:00N 49°01' W 123°14'4 6.1
2017-Dec-10 12:25N 49°01' W 123°09'0 0.1
2017-Dec-10 12:00N 49°01' W 123°09'1 3.0
2017-Dec-10 11:30N 48°60' W 123°10'2 2.5
2017-Dec-10 10:48N 49°01' W 123°09'0 0.0
2017-Dec-10 10:30N 49°01' W 123°09'0 0.0
2017-Dec-10 10:00N 49°01' W 123°09'0 0.0
2017-Dec-10 09:28N 49°01' W 123°09'0 0.0
2017-Dec-10 08:52N 49°01' W 123°09'0 0.0
2017-Dec-10 08:29N 49°01' W 123°09'0 0.0
2017-Dec-10 08:00N 49°01' W 123°09'0 0.0
2017-Dec-10 07:30N 49°01' W 123°09'0 0.5
2017-Dec-10 06:59N 49°01' W 123°09'1 1.0
2017-Dec-10 06:27N 49°01' W 123°09'0 0.2
2017-Dec-10 06:00N 49°01' W 123°09'0 0.1
2017-Dec-10 05:29N 49°01' W 123°09'0 0.5
2017-Dec-10 05:00N 49°01' W 123°09'0 0.8
2017-Dec-10 04:30N 49°01' W 123°09'1 1.3
2017-Dec-10 03:59N 49°02' W 123°09'0 0.0
2017-Dec-10 03:01N 49°01' W 123°09'0 0.0
2017-Dec-10 02:48N 49°01' W 123°09'0 0.0
2017-Dec-10 01:31N 49°01' W 123°09'0 0.4
2017-Dec-10 01:30N 49°02' W 123°09'1 2.4
2017-Dec-10 01:00N 49°01' W 123°10'0 0.0
2017-Dec-10 00:10N 49°01' W 123°10'0 0.7
2017-Dec-09 23:56N 49°01' W 123°10'2 4.2
2017-Dec-09 23:30N 49°01' W 123°13'611.6
2017-Dec-09 23:00N 49°05' W 123°19'611.5
2017-Dec-09 22:29N 49°10' W 123°19'511.3
2017-Dec-09 22:00N 49°16' W 123°18'5 9.7
2017-Dec-09 21:30N 49°19' W 123°12'4 7.1
2017-Dec-09 21:00N 49°19' W 123°06'0 0.0
2017-Dec-09 20:30N 49°19' W 123°06'1 2.0
2017-Dec-09 20:00N 49°18' W 123°05'2 4.7
2017-Dec-09 19:30N 49°18' W 123°01'3 6.7
2017-Dec-09 19:00N 49°18' W 122°56'0 0.2
2017-Dec-09 18:30N 49°18' W 122°56'0 0.1
2017-Dec-09 18:01N 49°18' W 122°56'0 0.2
2017-Dec-09 17:30N 49°18' W 122°56'1 2.6
2017-Dec-09 17:00N 49°18' W 122°58'4 8.8
2017-Dec-09 16:30N 49°18' W 123°05'0 0.3
2017-Dec-09 16:00N 49°18' W 123°05'0 0.0
2017-Dec-09 15:30N 49°18' W 123°05'0 0.0
2017-Dec-09 15:00N 49°18' W 123°05'0 0.0
2017-Dec-09 14:30N 49°18' W 123°05'0 0.0
2017-Dec-09 14:00N 49°18' W 123°05'0 0.0
2017-Dec-09 13:30N 49°18' W 123°05'0 0.0
2017-Dec-09 13:00N 49°18' W 123°05'0 0.2
2017-Dec-09 12:30N 49°18' W 123°05'0 0.1
2017-Dec-09 12:00N 49°18' W 123°05'0 0.2
2017-Dec-09 11:30N 49°18' W 123°05'0 0.0
2017-Dec-09 11:00N 49°18' W 123°05'0 0.0
2017-Dec-09 10:30N 49°18' W 123°05'0 0.0
2017-Dec-09 10:00N 49°18' W 123°05'0 0.0
2017-Dec-09 09:30N 49°18' W 123°05'0 0.0
2017-Dec-09 09:00N 49°18' W 123°05'0 0.0
2017-Dec-09 08:30N 49°18' W 123°05'0 0.0
2017-Dec-09 08:00N 49°18' W 123°05'0 0.1
2017-Dec-09 07:30N 49°18' W 123°05'0 0.3
2017-Dec-09 07:00N 49°18' W 123°05'0 0.3
2017-Dec-09 06:31N 49°18' W 123°05'0 0.2
2017-Dec-09 06:00N 49°18' W 123°05'0 0.7
2017-Dec-09 05:30N 49°18' W 123°05'1 1.5
2017-Dec-09 05:00N 49°19' W 123°06'0 0.3
2017-Dec-09 04:30N 49°19' W 123°06'0 0.0
2017-Dec-09 04:00N 49°19' W 123°06'0 0.0
2017-Dec-09 03:30N 49°19' W 123°06'1 2.2
2017-Dec-09 03:00N 49°18' W 123°05'1 1.9
2017-Dec-09 02:30N 49°18' W 123°06'3 5.5
2017-Dec-09 02:00N 49°19' W 123°10'4 7.4
2017-Dec-09 01:30N 49°18' W 123°05'2 4.1
2017-Dec-09 01:00N 49°18' W 123°02'1 2.4
2017-Dec-09 00:30N 49°18' W 122°60'1 2.7
2017-Dec-09 00:00N 49°18' W 122°58'2 4.8
2017-Dec-08 23:30N 49°18' W 122°54'1 2.7
2017-Dec-08 23:00N 49°17' W 122°52'2 3.1
2017-Dec-08 22:30N 49°18' W 122°54'4 8.9
2017-Dec-08 22:00N 49°18' W 123°01'1 2.4
2017-Dec-08 21:30N 49°18' W 123°03'0 0.0
2017-Dec-08 21:00N 49°18' W 123°03'1 2.2
2017-Dec-08 20:30N 49°18' W 123°04'1 1.7
2017-Dec-08 20:00N 49°18' W 123°03'1 1.8
2017-Dec-08 19:30N 49°18' W 123°02'0 0.4
2017-Dec-08 19:00N 49°18' W 123°02'2 3.4
2017-Dec-08 18:30N 49°18' W 123°05'0 1.0
2017-Dec-08 18:00N 49°18' W 123°04'1 2.8
2017-Dec-08 17:30N 49°18' W 123°02'0 0.2
2017-Dec-08 17:00N 49°18' W 123°02'2 3.9
2017-Dec-08 16:30N 49°18' W 123°05'0 0.5
2017-Dec-08 16:00N 49°18' W 123°05'1 2.0
2017-Dec-08 15:30N 49°19' W 123°06'0 0.0
2017-Dec-08 15:00N 49°19' W 123°06'0 0.0
2017-Dec-08 14:30N 49°19' W 123°06'0 0.0
2017-Dec-08 14:00N 49°19' W 123°06'0 0.0
2017-Dec-08 13:30N 49°19' W 123°06'0 0.0
2017-Dec-08 13:00N 49°19' W 123°06'0 0.0
2017-Dec-08 12:30N 49°19' W 123°06'0 0.0
2017-Dec-08 12:00N 49°19' W 123°06'0 0.0
2017-Dec-08 11:30N 49°19' W 123°06'0 0.0
2017-Dec-08 11:00N 49°19' W 123°06'0 0.0
2017-Dec-08 10:30N 49°19' W 123°06'0 0.0
2017-Dec-08 10:00N 49°19' W 123°06'0 0.0
2017-Dec-08 09:30N 49°19' W 123°06'0 0.0
2017-Dec-08 09:00N 49°19' W 123°06'0 0.0
2017-Dec-08 08:30N 49°19' W 123°06'0 0.0
2017-Dec-08 08:00N 49°19' W 123°06'0 0.0
2017-Dec-08 07:30N 49°19' W 123°06'0 0.0
2017-Dec-08 07:00N 49°19' W 123°06'0 0.0
2017-Dec-08 06:30N 49°19' W 123°06'0 0.0
2017-Dec-08 06:00N 49°19' W 123°06'0 0.0
2017-Dec-08 05:30N 49°19' W 123°06'0 0.0
2017-Dec-08 05:00N 49°19' W 123°06'0 0.0
2017-Dec-08 04:30N 49°19' W 123°06'0 0.0
2017-Dec-08 04:00N 49°19' W 123°06'0 0.0
2017-Dec-08 03:30N 49°19' W 123°06'0 0.0
2017-Dec-08 03:00N 49°19' W 123°06'0 0.0
2017-Dec-08 02:30N 49°19' W 123°06'0 0.0
2017-Dec-08 02:00N 49°19' W 123°06'0 0.0
2017-Dec-08 01:30N 49°19' W 123°06'0 0.0
2017-Dec-08 01:00N 49°19' W 123°06'0 0.0
2017-Dec-08 00:30N 49°19' W 123°06'0 0.0
2017-Dec-08 00:00N 49°19' W 123°06'0 0.0
2017-Dec-07 23:30N 49°19' W 123°06'0 0.0
2017-Dec-07 23:00N 49°19' W 123°06'0 0.0
2017-Dec-07 22:30N 49°19' W 123°06'1 1.1
2017-Dec-07 22:00N 49°18' W 123°06'0 0.0
2017-Dec-07 21:30N 49°19' W 123°06'1 2.6
2017-Dec-07 21:00N 49°18' W 123°04'2 3.5
2017-Dec-07 20:30N 49°19' W 123°06'0 0.0
2017-Dec-07 20:00N 49°19' W 123°06'0 0.0
2017-Dec-07 19:30N 49°19' W 123°06'0 0.0
2017-Dec-07 19:00N 49°19' W 123°06'0 0.0
2017-Dec-07 18:30N 49°19' W 123°06'0 0.0
2017-Dec-07 18:00N 49°19' W 123°06'0 0.0
2017-Dec-07 17:30N 49°19' W 123°06'0 0.0
2017-Dec-07 17:00N 49°19' W 123°06'0 0.8
2017-Dec-07 16:30N 49°18' W 123°06'0 0.1
2017-Dec-07 16:01N 49°18' W 123°06'1 3.0
2017-Dec-07 15:30N 49°18' W 123°04'0 0.0
2017-Dec-07 15:00N 49°18' W 123°04'1 1.7
2017-Dec-07 14:30N 49°18' W 123°05'1 2.0
2017-Dec-07 14:00N 49°18' W 123°06'5 9.5
2017-Dec-07 13:30N 49°19' W 123°14'4 8.2
2017-Dec-07 13:00N 49°16' W 123°19'5 9.8
2017-Dec-07 12:30N 49°11' W 123°20'510.1
2017-Dec-07 12:00N 49°06' W 123°20'510.2
2017-Dec-07 11:30N 49°01' W 123°17'611.5
2017-Dec-07 10:59N 48°55' W 123°17'5 9.7
2017-Dec-07 10:29N 48°51' W 123°21'511.2
2017-Dec-07 10:00N 48°46' W 123°20'611.1
2017-Dec-07 09:30N 48°40' W 123°21'510.0
2017-Dec-07 09:00N 48°36' W 123°19'510.8
2017-Dec-07 08:30N 48°31' W 123°16'5 9.7
2017-Dec-07 08:00N 48°26' W 123°17'510.5
2017-Dec-07 07:30N 48°21' W 123°19'4 8.7
2017-Dec-07 07:00N 48°19' W 123°25'1 2.9
2017-Dec-07 06:30N 48°20' W 123°27'5 9.7
2017-Dec-07 06:01N 48°23' W 123°22'510.4
2017-Dec-07 05:31N 48°24' W 123°14'5 9.8
2017-Dec-07 05:01N 48°29' W 123°13'611.6
2017-Dec-07 04:31N 48°34' W 123°14'611.8
2017-Dec-07 04:01N 48°40' W 123°15'5 9.4
2017-Dec-07 03:31N 48°44' W 123°10'510.8
2017-Dec-07 03:00N 48°46' W 123°03'4 8.1
2017-Dec-07 02:30N 48°50' W 123°01'4 7.6
2017-Dec-07 02:01N 48°53' W 123°05'612.2
2017-Dec-07 01:31N 48°58' W 123°10'611.9
2017-Dec-07 01:00N 49°02' W 123°16'611.9
2017-Dec-07 00:30N 49°08' W 123°20'612.5
2017-Dec-06 23:59N 49°14' W 123°21'510.0
2017-Dec-06 23:30N 49°19' W 123°17'4 8.1
2017-Dec-06 23:00N 49°19' W 123°11'3 6.2
2017-Dec-06 22:30N 49°18' W 123°07'4 7.4
2017-Dec-06 22:00N 49°18' W 123°01'2 3.1
2017-Dec-06 21:30N 49°18' W 122°59'1 2.2
2017-Dec-06 21:01N 49°18' W 122°57'  
2017-Dec-04 10:30N 49°19' W 123°06'3 5.6
2017-Dec-04 10:00N 49°19' W 123°11'5 9.6
2017-Dec-04 09:30N 49°17' W 123°17'510.3
2017-Dec-04 09:00N 49°12' W 123°19'510.6
2017-Dec-04 08:30N 49°07' W 123°20'5 9.4
2017-Dec-04 08:00N 49°02' W 123°17'510.4
2017-Dec-04 07:30N 49°00' W 123°10'1 2.1
2017-Dec-04 07:00N 49°01' W 123°09'0 0.9
2017-Dec-04 06:29N 49°01' W 123°09'0 0.1
2017-Dec-04 06:00N 49°01' W 123°09'1 1.3
2017-Dec-04 05:30N 49°01' W 123°09'0 0.0
2017-Dec-04 04:57N 49°01' W 123°09'2 3.2
2017-Dec-04 04:28N 49°00' W 123°11'511.0
2017-Dec-04 04:00N 49°03' W 123°17'510.4
2017-Dec-04 03:30N 49°08' W 123°19'810.6
2017-Dec-04 02:44N 49°16' W 123°18'2 9.6
2017-Dec-04 02:31N 49°18' W 123°15'510.5
2017-Dec-04 02:00N 49°19' W 123°07'3 5.7
2017-Dec-04 01:30N 49°18' W 123°03'0 0.0
2017-Dec-04 01:01N 49°18' W 123°03'1 1.3
2017-Dec-04 00:30N 49°18' W 123°04'1 1.2
2017-Dec-04 00:01N 49°18' W 123°03'0 0.1
2017-Dec-03 23:30N 49°18' W 123°03'0 0.0
2017-Dec-03 23:00N 49°18' W 123°03'2 4.2
2017-Dec-03 22:31N 49°17' W 123°06'3 5.4
2017-Dec-03 22:00N 49°18' W 123°02'0 0.8
2017-Dec-03 21:31N 49°18' W 123°03'1 2.7
2017-Dec-03 21:01N 49°18' W 123°05'1 2.0
2017-Dec-03 20:30N 49°19' W 123°06'0 0.0
2017-Dec-03 20:00N 49°18' W 123°06'0 0.0
2017-Dec-03 19:30N 49°19' W 123°06'2 3.2
2017-Dec-03 19:00N 49°18' W 123°04'0 0.3
2017-Dec-03 18:30N 49°18' W 123°04'1 1.1
2017-Dec-03 18:01N 49°18' W 123°04'1 2.9
2017-Dec-03 17:30N 49°19' W 123°06'0 0.2
2017-Dec-03 17:01N 49°19' W 123°06'1 2.9
2017-Dec-03 16:31N 49°18' W 123°05'1 1.0
2017-Dec-03 16:01N 49°17' W 123°04'0 0.2
2017-Dec-03 15:31N 49°17' W 123°04'0 0.1
2017-Dec-03 15:01N 49°17' W 123°04'0 0.4
2017-Dec-03 14:30N 49°17' W 123°04'2 3.6
2017-Dec-03 14:01N 49°18' W 123°02'2 4.4
2017-Dec-03 13:30N 49°18' W 122°58'1 2.6
2017-Dec-03 13:01N 49°18' W 122°56'2 4.8
2017-Dec-03 12:31N 49°18' W 122°53'0 0.9
2017-Dec-03 12:01N 49°17' W 122°52'1 1.9
2017-Dec-03 11:30N 49°18' W 122°53'0 0.0
2017-Dec-03 11:00N 49°18' W 122°53'0 0.0
2017-Dec-03 10:30N 49°18' W 122°53'0 0.0
2017-Dec-03 09:59N 49°18' W 122°53'0 0.0
2017-Dec-03 09:30N 49°18' W 122°53'0 0.0
2017-Dec-03 09:00N 49°18' W 122°53'4 7.2
2017-Dec-03 08:30N 49°18' W 122°58'510.4
2017-Dec-03 08:00N 49°18' W 123°06'4 8.8
2017-Dec-03 07:30N 49°19' W 123°13'1 1.1
2017-Dec-03 07:00N 49°20' W 123°12'1 2.6
2017-Dec-03 06:30N 49°19' W 123°10'3 5.3
2017-Dec-03 06:00N 49°18' W 123°06'0 0.5
2017-Dec-03 05:30N 49°19' W 123°06'0 0.1
2017-Dec-03 05:00N 49°19' W 123°06'0 0.2
2017-Dec-03 04:30N 49°19' W 123°06'0 0.0
2017-Dec-03 04:00N 49°19' W 123°06'0 0.0
2017-Dec-03 03:30N 49°19' W 123°06'0 0.0
2017-Dec-03 03:00N 49°19' W 123°06'0 0.0
2017-Dec-03 02:30N 49°19' W 123°06'0 0.0
2017-Dec-03 02:00N 49°19' W 123°06'0 0.0
2017-Dec-03 01:30N 49°19' W 123°06'0 0.0
2017-Dec-03 01:00N 49°19' W 123°06'3 6.8
2017-Dec-03 00:30N 49°18' W 123°01'2 4.6
2017-Dec-03 00:00N 49°17' W 122°58'1 1.1
2017-Dec-02 23:30N 49°18' W 122°59'4 7.1
2017-Dec-02 23:00N 49°18' W 123°04'2 3.7
2017-Dec-02 22:30N 49°19' W 123°06'0 0.0
2017-Dec-02 22:00N 49°19' W 123°06'0 0.0
2017-Dec-02 21:30N 49°19' W 123°06'0 0.0
2017-Dec-02 21:00N 49°19' W 123°06'0 0.3
2017-Dec-02 20:30N 49°19' W 123°06'0 0.0
2017-Dec-02 20:00N 49°19' W 123°06'0 0.0
2017-Dec-02 19:30N 49°19' W 123°06'0 0.0
2017-Dec-02 19:00N 49°19' W 123°06'0 0.0
2017-Dec-02 18:30N 49°19' W 123°06'0 0.0
2017-Dec-02 18:00N 49°19' W 123°06'0 0.0
2017-Dec-02 17:30N 49°19' W 123°06'1 1.9
2017-Dec-02 17:00N 49°18' W 123°08'5 9.2
2017-Dec-02 16:31N 49°19' W 123°15'5 9.1
2017-Dec-02 16:01N 49°15' W 123°19'5 9.7
2017-Dec-02 15:30N 49°10' W 123°20'5 9.6
2017-Dec-02 15:00N 49°05' W 123°21'5 9.7
2017-Dec-02 14:30N 49°02' W 123°15'4 8.5
2017-Dec-02 14:00N 49°01' W 123°09'0 0.1
2017-Dec-02 13:30N 49°01' W 123°09'1 2.6
2017-Dec-02 13:00N 48°60' W 123°09'1 1.2
2017-Dec-02 12:30N 49°01' W 123°10'1 1.5
2017-Dec-02 11:47N 49°01' W 123°09'0 0.0
2017-Dec-02 11:30N 49°01' W 123°09'0 0.9
2017-Dec-02 11:00N 49°01' W 123°09'0 0.3
2017-Dec-02 10:30N 49°01' W 123°09'0 0.6
2017-Dec-02 10:00N 49°01' W 123°09'0 0.0
2017-Dec-02 09:24N 49°01' W 123°09'0 0.0
2017-Dec-02 08:59N 49°01' W 123°09'0 0.0
2017-Dec-02 08:30N 49°01' W 123°09'2 4.0
2017-Dec-02 08:00N 49°01' W 123°12'4 8.9
2017-Dec-02 07:30N 49°03' W 123°17'5 9.1
2017-Dec-02 07:00N 49°08' W 123°19'5 9.7
2017-Dec-02 06:30N 49°13' W 123°18'510.0
2017-Dec-02 06:00N 49°17' W 123°17'510.2
2017-Dec-02 05:30N 49°19' W 123°10'2 4.6
2017-Dec-02 04:58N 49°18' W 123°06'0 0.0
2017-Dec-02 04:28N 49°18' W 123°06'0 0.8
2017-Dec-02 03:58N 49°19' W 123°06'0 0.1
2017-Dec-02 03:28N 49°19' W 123°06'3 5.5
2017-Dec-02 03:00N 49°18' W 123°03'3 5.3
2017-Dec-02 02:23N 49°17' W 122°58'0 0.0
2017-Dec-02 01:59N 49°17' W 122°58'0 0.7
2017-Dec-02 01:27N 49°18' W 122°58'0 0.1
2017-Dec-02 00:51N 49°18' W 122°58'0 1.1
2017-Dec-02 00:30N 49°18' W 122°59'4 8.9
2017-Dec-02 00:00N 49°18' W 123°05'510.4
2017-Dec-01 23:30N 49°19' W 123°13'611.2
2017-Dec-01 23:00N 49°19' W 123°22'510.8
2017-Dec-01 22:30N 49°21' W 123°30'10 2.6
2017-Dec-01 18:26N 49°26' W 123°44'511.3
2017-Dec-01 17:58N 49°23' W 123°37'511.1
2017-Dec-01 17:29N 49°20' W 123°30'510.5
2017-Dec-01 17:01N 49°19' W 123°22'5 9.9
2017-Dec-01 16:30N 49°19' W 123°15'510.6
2017-Dec-01 16:00N 49°18' W 123°07'0 0.7
2017-Dec-01 15:30N 49°19' W 123°06'0 0.0
2017-Dec-01 15:00N 49°19' W 123°06'0 0.0
2017-Dec-01 14:30N 49°19' W 123°06'0 0.0
2017-Dec-01 14:00N 49°19' W 123°06'1 1.4
2017-Dec-01 13:30N 49°18' W 123°06'2 4.6
2017-Dec-01 12:58N 49°18' W 123°02'0 0.2
2017-Dec-01 12:28N 49°18' W 123°02'1 2.4
2017-Dec-01 12:00N 49°18' W 123°04'2 3.1
2017-Dec-01 11:29N 49°18' W 123°06'0 0.0
2017-Dec-01 10:59N 49°18' W 123°06'0 0.0
2017-Dec-01 10:29N 49°18' W 123°06'0 0.0
2017-Dec-01 09:59N 49°18' W 123°06'0 0.0
2017-Dec-01 09:29N 49°18' W 123°06'0 0.0
2017-Dec-01 08:59N 49°18' W 123°06'0 0.2
2017-Dec-01 08:29N 49°18' W 123°06'0 0.1
2017-Dec-01 07:59N 49°18' W 123°06'0 0.1
2017-Dec-01 07:29N 49°18' W 123°06'0 0.0
2017-Dec-01 06:59N 49°18' W 123°06'0 0.2
2017-Dec-01 06:29N 49°18' W 123°06'0 0.1
2017-Dec-01 05:59N 49°18' W 123°06'0 0.1
2017-Dec-01 05:29N 49°18' W 123°06'0 0.1
2017-Dec-01 04:59N 49°18' W 123°06'0 0.0
2017-Dec-01 04:29N 49°18' W 123°06'  
Track history (hours):
 
Tides and Currents Weather Stations Pressure Air Temp Water Temp Dewpoint Dewpoint Depression Visibility Wind Speed Wind Dir Waves Ship Positions

Seaspan Eagle

Last reported at 2017-Dec-11 04:00 UTC. Time now 2017-Dec-11 04:12 UTC.
Position N 49°18' W 123°05'.

Length 26 m; draft 5.4 m.

Type: Tug. MMSI: 316020871.

Date/timePositionNaut miles runAvg speedWind from/ knotsBaromVisibWave heightAir tempDewpointWater temp
2017-Dec-11 04:00N 49°18' W 123°05'0 0.0
2017-Dec-11 03:30N 49°18' W 123°05'1 1.7
2017-Dec-11 03:00N 49°18' W 123°04'3 5.2
2017-Dec-11 02:30N 49°18' W 122°60'3 6.1
2017-Dec-11 02:00N 49°18' W 122°55'2 3.6
2017-Dec-11 01:30N 49°18' W 122°52'0 0.1
2017-Dec-11 01:00N 49°17' W 122°52'2 3.1
2017-Dec-11 00:30N 49°18' W 122°54'4 8.5
2017-Dec-11 00:00N 49°18' W 123°01'2 3.9
2017-Dec-10 23:30N 49°18' W 123°04'0 0.1
2017-Dec-10 23:00N 49°18' W 123°04'1 1.5
2017-Dec-10 22:30N 49°18' W 123°05'1 1.9
2017-Dec-10 22:00N 49°19' W 123°06'0 0.0
2017-Dec-10 21:30N 49°19' W 123°06'0 0.0
2017-Dec-10 21:01N 49°19' W 123°06'1 2.1
2017-Dec-10 20:31N 49°18' W 123°07'0 0.0
2017-Dec-10 20:00N 49°18' W 123°07'0 0.0
2017-Dec-10 19:30N 49°18' W 123°07'0 0.0
2017-Dec-10 19:00N 49°18' W 123°07'0 0.0
2017-Dec-10 18:30N 49°18' W 123°07'0 0.0
2017-Dec-10 18:00N 49°18' W 123°07'0 0.0
2017-Dec-10 17:30N 49°18' W 123°07'0 0.0
2017-Dec-10 17:00N 49°18' W 123°07'0 0.0
2017-Dec-10 16:30N 49°18' W 123°07'0 0.0
2017-Dec-10 16:00N 49°18' W 123°07'0 0.0
2017-Dec-10 15:30N 49°18' W 123°07'3 5.3
2017-Dec-10 15:00N 49°19' W 123°11'510.8
2017-Dec-10 14:30N 49°16' W 123°18'611.2
2017-Dec-10 14:00N 49°11' W 123°19'511.0
2017-Dec-10 13:30N 49°05' W 123°20'511.0
2017-Dec-10 13:00N 49°01' W 123°14'4 6.1
2017-Dec-10 12:25N 49°01' W 123°09'0 0.1
2017-Dec-10 12:00N 49°01' W 123°09'1 3.0
2017-Dec-10 11:30N 48°60' W 123°10'2 2.5
2017-Dec-10 10:48N 49°01' W 123°09'0 0.0
2017-Dec-10 10:30N 49°01' W 123°09'0 0.0
2017-Dec-10 10:00N 49°01' W 123°09'0 0.0
2017-Dec-10 09:28N 49°01' W 123°09'0 0.0
2017-Dec-10 08:52N 49°01' W 123°09'0 0.0
2017-Dec-10 08:29N 49°01' W 123°09'0 0.0
2017-Dec-10 08:00N 49°01' W 123°09'0 0.0
2017-Dec-10 07:30N 49°01' W 123°09'0 0.5
2017-Dec-10 06:59N 49°01' W 123°09'1 1.0
2017-Dec-10 06:27N 49°01' W 123°09'0 0.2
2017-Dec-10 06:00N 49°01' W 123°09'0 0.1
2017-Dec-10 05:29N 49°01' W 123°09'0 0.5
2017-Dec-10 05:00N 49°01' W 123°09'0 0.8
2017-Dec-10 04:30N 49°01' W 123°09'1 1.3
2017-Dec-10 03:59N 49°02' W 123°09'0 0.0
2017-Dec-10 03:01N 49°01' W 123°09'0 0.0
2017-Dec-10 02:48N 49°01' W 123°09'0 0.0
2017-Dec-10 01:31N 49°01' W 123°09'0 0.4
2017-Dec-10 01:30N 49°02' W 123°09'1 2.4
2017-Dec-10 01:00N 49°01' W 123°10'0 0.0
2017-Dec-10 00:10N 49°01' W 123°10'0 0.7
2017-Dec-09 23:56N 49°01' W 123°10'2 4.2
2017-Dec-09 23:30N 49°01' W 123°13'611.6
2017-Dec-09 23:00N 49°05' W 123°19'611.5
2017-Dec-09 22:29N 49°10' W 123°19'511.3
2017-Dec-09 22:00N 49°16' W 123°18'5 9.7
2017-Dec-09 21:30N 49°19' W 123°12'4 7.1
2017-Dec-09 21:00N 49°19' W 123°06'0 0.0
2017-Dec-09 20:30N 49°19' W 123°06'1 2.0
2017-Dec-09 20:00N 49°18' W 123°05'2 4.7
2017-Dec-09 19:30N 49°18' W 123°01'3 6.7
2017-Dec-09 19:00N 49°18' W 122°56'0 0.2
2017-Dec-09 18:30N 49°18' W 122°56'0 0.1
2017-Dec-09 18:01N 49°18' W 122°56'0 0.2
2017-Dec-09 17:30N 49°18' W 122°56'1 2.6
2017-Dec-09 17:00N 49°18' W 122°58'4 8.8
2017-Dec-09 16:30N 49°18' W 123°05'0 0.3
2017-Dec-09 16:00N 49°18' W 123°05'0 0.0
2017-Dec-09 15:30N 49°18' W 123°05'0 0.0
2017-Dec-09 15:00N 49°18' W 123°05'0 0.0
2017-Dec-09 14:30N 49°18' W 123°05'0 0.0
2017-Dec-09 14:00N 49°18' W 123°05'0 0.0
2017-Dec-09 13:30N 49°18' W 123°05'0 0.0
2017-Dec-09 13:00N 49°18' W 123°05'0 0.2
2017-Dec-09 12:30N 49°18' W 123°05'0 0.1
2017-Dec-09 12:00N 49°18' W 123°05'0 0.2
2017-Dec-09 11:30N 49°18' W 123°05'0 0.0
2017-Dec-09 11:00N 49°18' W 123°05'0 0.0
2017-Dec-09 10:30N 49°18' W 123°05'0 0.0
2017-Dec-09 10:00N 49°18' W 123°05'0 0.0
2017-Dec-09 09:30N 49°18' W 123°05'0 0.0
2017-Dec-09 09:00N 49°18' W 123°05'0 0.0
2017-Dec-09 08:30N 49°18' W 123°05'0 0.0
2017-Dec-09 08:00N 49°18' W 123°05'0 0.1
2017-Dec-09 07:30N 49°18' W 123°05'0 0.3
2017-Dec-09 07:00N 49°18' W 123°05'0 0.3
2017-Dec-09 06:31N 49°18' W 123°05'0 0.2
2017-Dec-09 06:00N 49°18' W 123°05'0 0.7
2017-Dec-09 05:30N 49°18' W 123°05'1 1.5
2017-Dec-09 05:00N 49°19' W 123°06'0 0.3
2017-Dec-09 04:30N 49°19' W 123°06'0 0.0
2017-Dec-09 04:00N 49°19' W 123°06'0 0.0
2017-Dec-09 03:30N 49°19' W 123°06'1 2.2
2017-Dec-09 03:00N 49°18' W 123°05'1 1.9
2017-Dec-09 02:30N 49°18' W 123°06'3 5.5
2017-Dec-09 02:00N 49°19' W 123°10'4 7.4
2017-Dec-09 01:30N 49°18' W 123°05'2 4.1
2017-Dec-09 01:00N 49°18' W 123°02'1 2.4
2017-Dec-09 00:30N 49°18' W 122°60'1 2.7
2017-Dec-09 00:00N 49°18' W 122°58'2 4.8
2017-Dec-08 23:30N 49°18' W 122°54'1 2.7
2017-Dec-08 23:00N 49°17' W 122°52'2 3.1
2017-Dec-08 22:30N 49°18' W 122°54'4 8.9
2017-Dec-08 22:00N 49°18' W 123°01'1 2.4
2017-Dec-08 21:30N 49°18' W 123°03'0 0.0
2017-Dec-08 21:00N 49°18' W 123°03'1 2.2
2017-Dec-08 20:30N 49°18' W 123°04'1 1.7
2017-Dec-08 20:00N 49°18' W 123°03'1 1.8
2017-Dec-08 19:30N 49°18' W 123°02'0 0.4
2017-Dec-08 19:00N 49°18' W 123°02'2 3.4
2017-Dec-08 18:30N 49°18' W 123°05'0 1.0
2017-Dec-08 18:00N 49°18' W 123°04'1 2.8
2017-Dec-08 17:30N 49°18' W 123°02'0 0.2
2017-Dec-08 17:00N 49°18' W 123°02'2 3.9
2017-Dec-08 16:30N 49°18' W 123°05'0 0.5
2017-Dec-08 16:00N 49°18' W 123°05'1 2.0
2017-Dec-08 15:30N 49°19' W 123°06'0 0.0
2017-Dec-08 15:00N 49°19' W 123°06'0 0.0
2017-Dec-08 14:30N 49°19' W 123°06'0 0.0
2017-Dec-08 14:00N 49°19' W 123°06'0 0.0
2017-Dec-08 13:30N 49°19' W 123°06'0 0.0
2017-Dec-08 13:00N 49°19' W 123°06'0 0.0
2017-Dec-08 12:30N 49°19' W 123°06'0 0.0
2017-Dec-08 12:00N 49°19' W 123°06'0 0.0
2017-Dec-08 11:30N 49°19' W 123°06'0 0.0
2017-Dec-08 11:00N 49°19' W 123°06'0 0.0
2017-Dec-08 10:30N 49°19' W 123°06'0 0.0
2017-Dec-08 10:00N 49°19' W 123°06'0 0.0
2017-Dec-08 09:30N 49°19' W 123°06'0 0.0
2017-Dec-08 09:00N 49°19' W 123°06'0 0.0
2017-Dec-08 08:30N 49°19' W 123°06'0 0.0
2017-Dec-08 08:00N 49°19' W 123°06'0 0.0
2017-Dec-08 07:30N 49°19' W 123°06'0 0.0
2017-Dec-08 07:00N 49°19' W 123°06'0 0.0
2017-Dec-08 06:30N 49°19' W 123°06'0 0.0
2017-Dec-08 06:00N 49°19' W 123°06'0 0.0
2017-Dec-08 05:30N 49°19' W 123°06'0 0.0
2017-Dec-08 05:00N 49°19' W 123°06'0 0.0
2017-Dec-08 04:30N 49°19' W 123°06'0 0.0
2017-Dec-08 04:00N 49°19' W 123°06'0 0.0
2017-Dec-08 03:30N 49°19' W 123°06'0 0.0
2017-Dec-08 03:00N 49°19' W 123°06'0 0.0
2017-Dec-08 02:30N 49°19' W 123°06'0 0.0
2017-Dec-08 02:00N 49°19' W 123°06'0 0.0
2017-Dec-08 01:30N 49°19' W 123°06'0 0.0
2017-Dec-08 01:00N 49°19' W 123°06'0 0.0
2017-Dec-08 00:30N 49°19' W 123°06'0 0.0
2017-Dec-08 00:00N 49°19' W 123°06'0 0.0
2017-Dec-07 23:30N 49°19' W 123°06'0 0.0
2017-Dec-07 23:00N 49°19' W 123°06'0 0.0
2017-Dec-07 22:30N 49°19' W 123°06'1 1.1
2017-Dec-07 22:00N 49°18' W 123°06'0 0.0
2017-Dec-07 21:30N 49°19' W 123°06'1 2.6
2017-Dec-07 21:00N 49°18' W 123°04'2 3.5
2017-Dec-07 20:30N 49°19' W 123°06'0 0.0
2017-Dec-07 20:00N 49°19' W 123°06'0 0.0
2017-Dec-07 19:30N 49°19' W 123°06'0 0.0
2017-Dec-07 19:00N 49°19' W 123°06'0 0.0
2017-Dec-07 18:30N 49°19' W 123°06'0 0.0
2017-Dec-07 18:00N 49°19' W 123°06'0 0.0
2017-Dec-07 17:30N 49°19' W 123°06'0 0.0
2017-Dec-07 17:00N 49°19' W 123°06'0 0.8
2017-Dec-07 16:30N 49°18' W 123°06'0 0.1
2017-Dec-07 16:01N 49°18' W 123°06'1 3.0
2017-Dec-07 15:30N 49°18' W 123°04'0 0.0
2017-Dec-07 15:00N 49°18' W 123°04'1 1.7
2017-Dec-07 14:30N 49°18' W 123°05'1 2.0
2017-Dec-07 14:00N 49°18' W 123°06'5 9.5
2017-Dec-07 13:30N 49°19' W 123°14'4 8.2
2017-Dec-07 13:00N 49°16' W 123°19'5 9.8
2017-Dec-07 12:30N 49°11' W 123°20'510.1
2017-Dec-07 12:00N 49°06' W 123°20'510.2
2017-Dec-07 11:30N 49°01' W 123°17'611.5
2017-Dec-07 10:59N 48°55' W 123°17'5 9.7
2017-Dec-07 10:29N 48°51' W 123°21'511.2
2017-Dec-07 10:00N 48°46' W 123°20'611.1
2017-Dec-07 09:30N 48°40' W 123°21'510.0
2017-Dec-07 09:00N 48°36' W 123°19'510.8
2017-Dec-07 08:30N 48°31' W 123°16'5 9.7
2017-Dec-07 08:00N 48°26' W 123°17'510.5
2017-Dec-07 07:30N 48°21' W 123°19'4 8.7
2017-Dec-07 07:00N 48°19' W 123°25'1 2.9
2017-Dec-07 06:30N 48°20' W 123°27'5 9.7
2017-Dec-07 06:01N 48°23' W 123°22'510.4
2017-Dec-07 05:31N 48°24' W 123°14'5 9.8
2017-Dec-07 05:01N 48°29' W 123°13'611.6
2017-Dec-07 04:31N 48°34' W 123°14'611.8
2017-Dec-07 04:01N 48°40' W 123°15'5 9.4
2017-Dec-07 03:31N 48°44' W 123°10'510.8
2017-Dec-07 03:00N 48°46' W 123°03'4 8.1
2017-Dec-07 02:30N 48°50' W 123°01'4 7.6
2017-Dec-07 02:01N 48°53' W 123°05'612.2
2017-Dec-07 01:31N 48°58' W 123°10'611.9
2017-Dec-07 01:00N 49°02' W 123°16'611.9
2017-Dec-07 00:30N 49°08' W 123°20'612.5
2017-Dec-06 23:59N 49°14' W 123°21'510.0
2017-Dec-06 23:30N 49°19' W 123°17'4 8.1
2017-Dec-06 23:00N 49°19' W 123°11'3 6.2
2017-Dec-06 22:30N 49°18' W 123°07'4 7.4
2017-Dec-06 22:00N 49°18' W 123°01'2 3.1
2017-Dec-06 21:30N 49°18' W 122°59'1 2.2
2017-Dec-06 21:01N 49°18' W 122°57'  
2017-Dec-04 10:30N 49°19' W 123°06'3 5.6
2017-Dec-04 10:00N 49°19' W 123°11'5 9.6
2017-Dec-04 09:30N 49°17' W 123°17'510.3
2017-Dec-04 09:00N 49°12' W 123°19'510.6
2017-Dec-04 08:30N 49°07' W 123°20'5 9.4
2017-Dec-04 08:00N 49°02' W 123°17'510.4
2017-Dec-04 07:30N 49°00' W 123°10'1 2.1
2017-Dec-04 07:00N 49°01' W 123°09'0 0.9
2017-Dec-04 06:29N 49°01' W 123°09'0 0.1
2017-Dec-04 06:00N 49°01' W 123°09'1 1.3
2017-Dec-04 05:30N 49°01' W 123°09'0 0.0
2017-Dec-04 04:57N 49°01' W 123°09'2 3.2
2017-Dec-04 04:28N 49°00' W 123°11'511.0
2017-Dec-04 04:00N 49°03' W 123°17'510.4
2017-Dec-04 03:30N 49°08' W 123°19'810.6
2017-Dec-04 02:44N 49°16' W 123°18'2 9.6
2017-Dec-04 02:31N 49°18' W 123°15'510.5
2017-Dec-04 02:00N 49°19' W 123°07'3 5.7
2017-Dec-04 01:30N 49°18' W 123°03'0 0.0
2017-Dec-04 01:01N 49°18' W 123°03'1 1.3
2017-Dec-04 00:30N 49°18' W 123°04'1 1.2
2017-Dec-04 00:01N 49°18' W 123°03'0 0.1
2017-Dec-03 23:30N 49°18' W 123°03'0 0.0
2017-Dec-03 23:00N 49°18' W 123°03'2 4.2
2017-Dec-03 22:31N 49°17' W 123°06'3 5.4
2017-Dec-03 22:00N 49°18' W 123°02'0 0.8
2017-Dec-03 21:31N 49°18' W 123°03'1 2.7
2017-Dec-03 21:01N 49°18' W 123°05'1 2.0
2017-Dec-03 20:30N 49°19' W 123°06'0 0.0
2017-Dec-03 20:00N 49°18' W 123°06'0 0.0
2017-Dec-03 19:30N 49°19' W 123°06'2 3.2
2017-Dec-03 19:00N 49°18' W 123°04'0 0.3
2017-Dec-03 18:30N 49°18' W 123°04'1 1.1
2017-Dec-03 18:01N 49°18' W 123°04'1 2.9
2017-Dec-03 17:30N 49°19' W 123°06'0 0.2
2017-Dec-03 17:01N 49°19' W 123°06'1 2.9
2017-Dec-03 16:31N 49°18' W 123°05'1 1.0
2017-Dec-03 16:01N 49°17' W 123°04'0 0.2
2017-Dec-03 15:31N 49°17' W 123°04'0 0.1
2017-Dec-03 15:01N 49°17' W 123°04'0 0.4
2017-Dec-03 14:30N 49°17' W 123°04'2 3.6
2017-Dec-03 14:01N 49°18' W 123°02'2 4.4
2017-Dec-03 13:30N 49°18' W 122°58'1 2.6
2017-Dec-03 13:01N 49°18' W 122°56'2 4.8
2017-Dec-03 12:31N 49°18' W 122°53'0 0.9
2017-Dec-03 12:01N 49°17' W 122°52'1 1.9
2017-Dec-03 11:30N 49°18' W 122°53'0 0.0
2017-Dec-03 11:00N 49°18' W 122°53'0 0.0
2017-Dec-03 10:30N 49°18' W 122°53'0 0.0
2017-Dec-03 09:59N 49°18' W 122°53'0 0.0
2017-Dec-03 09:30N 49°18' W 122°53'0 0.0
2017-Dec-03 09:00N 49°18' W 122°53'4 7.2
2017-Dec-03 08:30N 49°18' W 122°58'510.4
2017-Dec-03 08:00N 49°18' W 123°06'4 8.8
2017-Dec-03 07:30N 49°19' W 123°13'1 1.1
2017-Dec-03 07:00N 49°20' W 123°12'1 2.6
2017-Dec-03 06:30N 49°19' W 123°10'3 5.3
2017-Dec-03 06:00N 49°18' W 123°06'0 0.5
2017-Dec-03 05:30N 49°19' W 123°06'0 0.1
2017-Dec-03 05:00N 49°19' W 123°06'0 0.2
2017-Dec-03 04:30N 49°19' W 123°06'0 0.0
2017-Dec-03 04:00N 49°19' W 123°06'0 0.0
2017-Dec-03 03:30N 49°19' W 123°06'0 0.0
2017-Dec-03 03:00N 49°19' W 123°06'0 0.0
2017-Dec-03 02:30N 49°19' W 123°06'0 0.0
2017-Dec-03 02:00N 49°19' W 123°06'0 0.0
2017-Dec-03 01:30N 49°19' W 123°06'0 0.0
2017-Dec-03 01:00N 49°19' W 123°06'3 6.8
2017-Dec-03 00:30N 49°18' W 123°01'2 4.6
2017-Dec-03 00:00N 49°17' W 122°58'1 1.1
2017-Dec-02 23:30N 49°18' W 122°59'4 7.1
2017-Dec-02 23:00N 49°18' W 123°04'2 3.7
2017-Dec-02 22:30N 49°19' W 123°06'0 0.0
2017-Dec-02 22:00N 49°19' W 123°06'0 0.0
2017-Dec-02 21:30N 49°19' W 123°06'0 0.0
2017-Dec-02 21:00N 49°19' W 123°06'0 0.3
2017-Dec-02 20:30N 49°19' W 123°06'0 0.0
2017-Dec-02 20:00N 49°19' W 123°06'0 0.0
2017-Dec-02 19:30N 49°19' W 123°06'0 0.0
2017-Dec-02 19:00N 49°19' W 123°06'0 0.0
2017-Dec-02 18:30N 49°19' W 123°06'0 0.0
2017-Dec-02 18:00N 49°19' W 123°06'0 0.0
2017-Dec-02 17:30N 49°19' W 123°06'1 1.9
2017-Dec-02 17:00N 49°18' W 123°08'5 9.2
2017-Dec-02 16:31N 49°19' W 123°15'5 9.1
2017-Dec-02 16:01N 49°15' W 123°19'5 9.7
2017-Dec-02 15:30N 49°10' W 123°20'5 9.6
2017-Dec-02 15:00N 49°05' W 123°21'5 9.7
2017-Dec-02 14:30N 49°02' W 123°15'4 8.5
2017-Dec-02 14:00N 49°01' W 123°09'0 0.1
2017-Dec-02 13:30N 49°01' W 123°09'1 2.6
2017-Dec-02 13:00N 48°60' W 123°09'1 1.2
2017-Dec-02 12:30N 49°01' W 123°10'1 1.5
2017-Dec-02 11:47N 49°01' W 123°09'0 0.0
2017-Dec-02 11:30N 49°01' W 123°09'0 0.9
2017-Dec-02 11:00N 49°01' W 123°09'0 0.3
2017-Dec-02 10:30N 49°01' W 123°09'0 0.6
2017-Dec-02 10:00N 49°01' W 123°09'0 0.0
2017-Dec-02 09:24N 49°01' W 123°09'0 0.0
2017-Dec-02 08:59N 49°01' W 123°09'0 0.0
2017-Dec-02 08:30N 49°01' W 123°09'2 4.0
2017-Dec-02 08:00N 49°01' W 123°12'4 8.9
2017-Dec-02 07:30N 49°03' W 123°17'5 9.1
2017-Dec-02 07:00N 49°08' W 123°19'5 9.7
2017-Dec-02 06:30N 49°13' W 123°18'510.0
2017-Dec-02 06:00N 49°17' W 123°17'510.2
2017-Dec-02 05:30N 49°19' W 123°10'2 4.6
2017-Dec-02 04:58N 49°18' W 123°06'0 0.0
2017-Dec-02 04:28N 49°18' W 123°06'0 0.8
2017-Dec-02 03:58N 49°19' W 123°06'0 0.1
2017-Dec-02 03:28N 49°19' W 123°06'3 5.5
2017-Dec-02 03:00N 49°18' W 123°03'3 5.3
2017-Dec-02 02:23N 49°17' W 122°58'0 0.0
2017-Dec-02 01:59N 49°17' W 122°58'0 0.7
2017-Dec-02 01:27N 49°18' W 122°58'0 0.1
2017-Dec-02 00:51N 49°18' W 122°58'0 1.1
2017-Dec-02 00:30N 49°18' W 122°59'4 8.9
2017-Dec-02 00:00N 49°18' W 123°05'510.4
2017-Dec-01 23:30N 49°19' W 123°13'611.2
2017-Dec-01 23:00N 49°19' W 123°22'510.8
2017-Dec-01 22:30N 49°21' W 123°30'10 2.6
2017-Dec-01 18:26N 49°26' W 123°44'511.3
2017-Dec-01 17:58N 49°23' W 123°37'511.1
2017-Dec-01 17:29N 49°20' W 123°30'510.5
2017-Dec-01 17:01N 49°19' W 123°22'5 9.9
2017-Dec-01 16:30N 49°19' W 123°15'510.6
2017-Dec-01 16:00N 49°18' W 123°07'0 0.7
2017-Dec-01 15:30N 49°19' W 123°06'0 0.0
2017-Dec-01 15:00N 49°19' W 123°06'0 0.0
2017-Dec-01 14:30N 49°19' W 123°06'0 0.0
2017-Dec-01 14:00N 49°19' W 123°06'1 1.4
2017-Dec-01 13:30N 49°18' W 123°06'2 4.6
2017-Dec-01 12:58N 49°18' W 123°02'0 0.2
2017-Dec-01 12:28N 49°18' W 123°02'1 2.4
2017-Dec-01 12:00N 49°18' W 123°04'2 3.1
2017-Dec-01 11:29N 49°18' W 123°06'0 0.0
2017-Dec-01 10:59N 49°18' W 123°06'0 0.0
2017-Dec-01 10:29N 49°18' W 123°06'0 0.0
2017-Dec-01 09:59N 49°18' W 123°06'0 0.0
2017-Dec-01 09:29N 49°18' W 123°06'0 0.0
2017-Dec-01 08:59N 49°18' W 123°06'0 0.2
2017-Dec-01 08:29N 49°18' W 123°06'0 0.1
2017-Dec-01 07:59N 49°18' W 123°06'0 0.1
2017-Dec-01 07:29N 49°18' W 123°06'0 0.0
2017-Dec-01 06:59N 49°18' W 123°06'0 0.2
2017-Dec-01 06:29N 49°18' W 123°06'0 0.1
2017-Dec-01 05:59N 49°18' W 123°06'0 0.1
2017-Dec-01 05:29N 49°18' W 123°06'0 0.1
2017-Dec-01 04:59N 49°18' W 123°06'0 0.0
2017-Dec-01 04:29N 49°18' W 123°06'  

Dump ship's entire track history